sensor_id;sensor_type;location;lat;lon;timestamp;P1;durP1;ratioP1;P2;durP2;ratioP2
52742;SDS011;55583;53.012;6.556;2023-04-19T00:00:33;15.13;;;7.57;;
52742;SDS011;55583;53.012;6.556;2023-04-19T00:02:59;15.52;;;7.70;;
52742;SDS011;55583;53.012;6.556;2023-04-19T00:05:26;14.98;;;7.72;;
52742;SDS011;55583;53.012;6.556;2023-04-19T00:07:52;16.30;;;8.02;;
52742;SDS011;55583;53.012;6.556;2023-04-19T00:10:18;17.27;;;7.68;;
52742;SDS011;55583;53.012;6.556;2023-04-19T00:12:44;15.45;;;8.20;;
52742;SDS011;55583;53.012;6.556;2023-04-19T00:15:10;13.45;;;8.95;;
52742;SDS011;55583;53.012;6.556;2023-04-19T00:17:35;15.25;;;7.75;;
52742;SDS011;55583;53.012;6.556;2023-04-19T00:20:02;14.95;;;7.85;;
52742;SDS011;55583;53.012;6.556;2023-04-19T00:22:28;12.60;;;7.20;;
52742;SDS011;55583;53.012;6.556;2023-04-19T00:24:53;10.68;;;7.85;;
52742;SDS011;55583;53.012;6.556;2023-04-19T00:27:19;14.70;;;8.10;;
52742;SDS011;55583;53.012;6.556;2023-04-19T00:29:45;16.08;;;8.38;;
52742;SDS011;55583;53.012;6.556;2023-04-19T00:32:10;14.35;;;8.23;;
52742;SDS011;55583;53.012;6.556;2023-04-19T00:34:36;16.83;;;7.68;;
52742;SDS011;55583;53.012;6.556;2023-04-19T00:37:02;13.93;;;8.85;;
52742;SDS011;55583;53.012;6.556;2023-04-19T00:39:30;16.08;;;7.85;;
52742;SDS011;55583;53.012;6.556;2023-04-19T00:41:56;11.57;;;7.97;;
52742;SDS011;55583;53.012;6.556;2023-04-19T00:44:22;12.65;;;8.38;;
52742;SDS011;55583;53.012;6.556;2023-04-19T00:46:48;10.50;;;7.35;;
52742;SDS011;55583;53.012;6.556;2023-04-19T00:49:14;11.63;;;8.30;;
52742;SDS011;55583;53.012;6.556;2023-04-19T00:51:40;13.60;;;7.97;;
52742;SDS011;55583;53.012;6.556;2023-04-19T00:54:06;12.32;;;8.02;;
52742;SDS011;55583;53.012;6.556;2023-04-19T00:56:33;16.45;;;7.75;;
52742;SDS011;55583;53.012;6.556;2023-04-19T00:58:59;16.13;;;8.60;;
52742;SDS011;55583;53.012;6.556;2023-04-19T01:01:26;18.88;;;8.43;;
52742;SDS011;55583;53.012;6.556;2023-04-19T01:03:52;14.05;;;8.75;;
52742;SDS011;55583;53.012;6.556;2023-04-19T01:06:18;13.18;;;8.07;;
52742;SDS011;55583;53.012;6.556;2023-04-19T01:08:44;14.43;;;8.60;;
52742;SDS011;55583;53.012;6.556;2023-04-19T01:11:10;19.38;;;8.93;;
52742;SDS011;55583;53.012;6.556;2023-04-19T01:13:36;16.35;;;8.45;;
52742;SDS011;55583;53.012;6.556;2023-04-19T01:16:02;17.45;;;8.00;;
52742;SDS011;55583;53.012;6.556;2023-04-19T01:18:27;14.07;;;9.05;;
52742;SDS011;55583;53.012;6.556;2023-04-19T01:20:57;12.48;;;8.65;;
52742;SDS011;55583;53.012;6.556;2023-04-19T01:23:23;14.23;;;9.05;;
52742;SDS011;55583;53.012;6.556;2023-04-19T01:25:48;17.55;;;9.55;;
52742;SDS011;55583;53.012;6.556;2023-04-19T01:28:14;17.75;;;9.55;;
52742;SDS011;55583;53.012;6.556;2023-04-19T01:30:40;14.90;;;9.40;;
52742;SDS011;55583;53.012;6.556;2023-04-19T01:33:06;19.92;;;10.73;;
52742;SDS011;55583;53.012;6.556;2023-04-19T01:35:31;17.75;;;9.82;;
52742;SDS011;55583;53.012;6.556;2023-04-19T01:37:57;14.23;;;9.75;;
52742;SDS011;55583;53.012;6.556;2023-04-19T01:40:23;18.55;;;10.05;;
52742;SDS011;55583;53.012;6.556;2023-04-19T01:42:49;20.15;;;10.15;;
52742;SDS011;55583;53.012;6.556;2023-04-19T01:45:15;15.52;;;10.18;;
52742;SDS011;55583;53.012;6.556;2023-04-19T01:47:40;20.27;;;10.38;;
52742;SDS011;55583;53.012;6.556;2023-04-19T01:50:06;17.27;;;10.32;;
52742;SDS011;55583;53.012;6.556;2023-04-19T01:52:32;16.20;;;9.40;;
52742;SDS011;55583;53.012;6.556;2023-04-19T01:54:58;18.83;;;11.18;;
52742;SDS011;55583;53.012;6.556;2023-04-19T01:57:23;17.33;;;10.15;;
52742;SDS011;55583;53.012;6.556;2023-04-19T01:59:49;23.30;;;10.63;;
52742;SDS011;55583;53.012;6.556;2023-04-19T02:02:15;23.25;;;11.85;;
52742;SDS011;55583;53.012;6.556;2023-04-19T02:04:41;20.52;;;10.85;;
52742;SDS011;55583;53.012;6.556;2023-04-19T02:07:08;15.23;;;9.68;;
52742;SDS011;55583;53.012;6.556;2023-04-19T02:09:37;18.67;;;11.65;;
52742;SDS011;55583;53.012;6.556;2023-04-19T02:12:03;17.25;;;11.27;;
52742;SDS011;55583;53.012;6.556;2023-04-19T02:14:30;22.58;;;12.75;;
52742;SDS011;55583;53.012;6.556;2023-04-19T02:16:56;20.05;;;11.98;;
52742;SDS011;55583;53.012;6.556;2023-04-19T02:19:22;18.02;;;11.10;;
52742;SDS011;55583;53.012;6.556;2023-04-19T02:21:48;20.38;;;12.40;;
52742;SDS011;55583;53.012;6.556;2023-04-19T02:24:13;16.83;;;11.52;;
52742;SDS011;55583;53.012;6.556;2023-04-19T02:26:39;24.48;;;11.85;;
52742;SDS011;55583;53.012;6.556;2023-04-19T02:29:05;21.95;;;12.63;;
52742;SDS011;55583;53.012;6.556;2023-04-19T02:31:31;22.75;;;12.55;;
52742;SDS011;55583;53.012;6.556;2023-04-19T02:33:57;19.48;;;11.82;;
52742;SDS011;55583;53.012;6.556;2023-04-19T02:36:22;20.90;;;12.32;;
52742;SDS011;55583;53.012;6.556;2023-04-19T02:38:48;17.65;;;12.05;;
52742;SDS011;55583;53.012;6.556;2023-04-19T02:41:13;21.20;;;11.05;;
52742;SDS011;55583;53.012;6.556;2023-04-19T02:43:39;23.35;;;11.77;;
52742;SDS011;55583;53.012;6.556;2023-04-19T02:46:05;18.27;;;11.68;;
52742;SDS011;55583;53.012;6.556;2023-04-19T02:48:31;19.05;;;11.32;;
52742;SDS011;55583;53.012;6.556;2023-04-19T02:50:56;18.77;;;11.02;;
52742;SDS011;55583;53.012;6.556;2023-04-19T02:53:22;17.08;;;10.77;;
52742;SDS011;55583;53.012;6.556;2023-04-19T02:55:48;19.00;;;11.32;;
52742;SDS011;55583;53.012;6.556;2023-04-19T02:58:14;15.60;;;11.27;;
52742;SDS011;55583;53.012;6.556;2023-04-19T03:00:39;17.98;;;10.15;;
52742;SDS011;55583;53.012;6.556;2023-04-19T03:03:05;21.70;;;11.23;;
52742;SDS011;55583;53.012;6.556;2023-04-19T03:05:31;15.90;;;9.85;;
52742;SDS011;55583;53.012;6.556;2023-04-19T03:07:57;16.23;;;9.52;;
52742;SDS011;55583;53.012;6.556;2023-04-19T03:10:23;17.13;;;9.45;;
52742;SDS011;55583;53.012;6.556;2023-04-19T03:12:49;17.73;;;9.88;;
52742;SDS011;55583;53.012;6.556;2023-04-19T03:15:14;20.08;;;9.95;;
52742;SDS011;55583;53.012;6.556;2023-04-19T03:17:40;15.95;;;9.68;;
52742;SDS011;55583;53.012;6.556;2023-04-19T03:20:06;13.57;;;8.98;;
52742;SDS011;55583;53.012;6.556;2023-04-19T03:22:36;14.52;;;9.30;;
52742;SDS011;55583;53.012;6.556;2023-04-19T03:25:02;13.93;;;8.95;;
52742;SDS011;55583;53.012;6.556;2023-04-19T03:27:29;18.20;;;8.82;;
52742;SDS011;55583;53.012;6.556;2023-04-19T03:29:55;15.98;;;9.02;;
52742;SDS011;55583;53.012;6.556;2023-04-19T03:32:20;17.20;;;9.60;;
52742;SDS011;55583;53.012;6.556;2023-04-19T03:34:46;16.75;;;9.60;;
52742;SDS011;55583;53.012;6.556;2023-04-19T03:37:12;16.30;;;8.40;;
52742;SDS011;55583;53.012;6.556;2023-04-19T03:39:38;16.52;;;9.13;;
52742;SDS011;55583;53.012;6.556;2023-04-19T03:42:03;13.80;;;8.68;;
52742;SDS011;55583;53.012;6.556;2023-04-19T03:44:32;13.77;;;8.20;;
52742;SDS011;55583;53.012;6.556;2023-04-19T03:46:58;13.95;;;8.65;;
52742;SDS011;55583;53.012;6.556;2023-04-19T03:49:23;17.40;;;9.60;;
52742;SDS011;55583;53.012;6.556;2023-04-19T03:51:49;13.65;;;8.20;;
52742;SDS011;55583;53.012;6.556;2023-04-19T03:54:14;17.80;;;8.35;;
52742;SDS011;55583;53.012;6.556;2023-04-19T03:56:40;14.80;;;9.38;;
52742;SDS011;55583;53.012;6.556;2023-04-19T03:59:06;18.33;;;7.78;;
52742;SDS011;55583;53.012;6.556;2023-04-19T04:01:33;15.15;;;8.40;;
52742;SDS011;55583;53.012;6.556;2023-04-19T04:03:58;12.90;;;7.63;;
52742;SDS011;55583;53.012;6.556;2023-04-19T04:06:24;15.25;;;7.80;;
52742;SDS011;55583;53.012;6.556;2023-04-19T04:08:50;26.48;;;8.80;;
52742;SDS011;55583;53.012;6.556;2023-04-19T04:11:16;10.88;;;7.82;;
52742;SDS011;55583;53.012;6.556;2023-04-19T04:13:42;16.58;;;8.70;;
52742;SDS011;55583;53.012;6.556;2023-04-19T04:16:08;12.95;;;7.60;;
52742;SDS011;55583;53.012;6.556;2023-04-19T04:18:33;10.82;;;7.30;;
52742;SDS011;55583;53.012;6.556;2023-04-19T04:20:59;12.68;;;8.27;;
52742;SDS011;55583;53.012;6.556;2023-04-19T04:23:24;13.30;;;6.80;;
52742;SDS011;55583;53.012;6.556;2023-04-19T04:25:57;11.07;;;7.05;;
52742;SDS011;55583;53.012;6.556;2023-04-19T04:28:29;13.15;;;7.75;;
52742;SDS011;55583;53.012;6.556;2023-04-19T04:30:56;10.70;;;7.28;;
52742;SDS011;55583;53.012;6.556;2023-04-19T04:33:25;13.45;;;7.43;;
52742;SDS011;55583;53.012;6.556;2023-04-19T04:35:52;15.43;;;7.32;;
52742;SDS011;55583;53.012;6.556;2023-04-19T04:38:19;13.68;;;7.25;;
52742;SDS011;55583;53.012;6.556;2023-04-19T04:40:51;17.00;;;7.00;;
52742;SDS011;55583;53.012;6.556;2023-04-19T04:45:45;9.93;;;6.55;;
52742;SDS011;55583;53.012;6.556;2023-04-19T04:48:11;14.30;;;7.43;;
52742;SDS011;55583;53.012;6.556;2023-04-19T04:50:37;11.73;;;7.05;;
52742;SDS011;55583;53.012;6.556;2023-04-19T04:53:02;12.43;;;6.72;;
52742;SDS011;55583;53.012;6.556;2023-04-19T04:55:28;11.32;;;6.60;;
52742;SDS011;55583;53.012;6.556;2023-04-19T04:57:54;13.13;;;6.38;;
52742;SDS011;55583;53.012;6.556;2023-04-19T05:00:20;14.13;;;6.63;;
52742;SDS011;55583;53.012;6.556;2023-04-19T05:02:46;10.75;;;6.97;;
52742;SDS011;55583;53.012;6.556;2023-04-19T05:05:12;10.00;;;6.95;;
52742;SDS011;55583;53.012;6.556;2023-04-19T05:07:38;11.95;;;7.28;;
52742;SDS011;55583;53.012;6.556;2023-04-19T05:10:03;11.40;;;6.75;;
52742;SDS011;55583;53.012;6.556;2023-04-19T05:12:32;10.10;;;6.35;;
52742;SDS011;55583;53.012;6.556;2023-04-19T05:14:58;11.32;;;6.30;;
52742;SDS011;55583;53.012;6.556;2023-04-19T05:17:24;11.55;;;6.85;;
52742;SDS011;55583;53.012;6.556;2023-04-19T05:19:49;15.07;;;7.03;;
52742;SDS011;55583;53.012;6.556;2023-04-19T05:22:15;11.85;;;5.68;;
52742;SDS011;55583;53.012;6.556;2023-04-19T05:24:41;10.68;;;6.20;;
52742;SDS011;55583;53.012;6.556;2023-04-19T05:27:06;13.02;;;6.90;;
52742;SDS011;55583;53.012;6.556;2023-04-19T05:29:33;9.95;;;6.25;;
52742;SDS011;55583;53.012;6.556;2023-04-19T05:31:59;10.80;;;6.10;;
52742;SDS011;55583;53.012;6.556;2023-04-19T05:34:25;10.10;;;6.03;;
52742;SDS011;55583;53.012;6.556;2023-04-19T05:36:50;10.75;;;6.20;;
52742;SDS011;55583;53.012;6.556;2023-04-19T05:39:16;10.93;;;6.07;;
52742;SDS011;55583;53.012;6.556;2023-04-19T05:41:42;11.32;;;6.40;;
52742;SDS011;55583;53.012;6.556;2023-04-19T05:44:07;10.65;;;5.90;;
52742;SDS011;55583;53.012;6.556;2023-04-19T05:46:33;10.00;;;5.75;;
52742;SDS011;55583;53.012;6.556;2023-04-19T05:49:00;10.00;;;5.65;;
52742;SDS011;55583;53.012;6.556;2023-04-19T05:51:26;14.85;;;6.47;;
52742;SDS011;55583;53.012;6.556;2023-04-19T05:53:52;10.00;;;5.93;;
52742;SDS011;55583;53.012;6.556;2023-04-19T05:56:18;13.15;;;5.90;;
52742;SDS011;55583;53.012;6.556;2023-04-19T05:58:44;10.27;;;5.05;;
52742;SDS011;55583;53.012;6.556;2023-04-19T06:01:10;8.65;;;5.15;;
52742;SDS011;55583;53.012;6.556;2023-04-19T06:03:36;8.13;;;5.13;;
52742;SDS011;55583;53.012;6.556;2023-04-19T06:06:01;7.57;;;4.78;;
52742;SDS011;55583;53.012;6.556;2023-04-19T06:08:28;10.82;;;4.45;;
52742;SDS011;55583;53.012;6.556;2023-04-19T06:10:53;8.57;;;4.35;;
52742;SDS011;55583;53.012;6.556;2023-04-19T06:13:20;6.70;;;4.65;;
52742;SDS011;55583;53.012;6.556;2023-04-19T06:15:46;8.65;;;5.00;;
52742;SDS011;55583;53.012;6.556;2023-04-19T06:18:12;7.05;;;4.65;;
52742;SDS011;55583;53.012;6.556;2023-04-19T06:20:38;5.70;;;4.38;;
52742;SDS011;55583;53.012;6.556;2023-04-19T06:23:04;7.47;;;4.40;;
52742;SDS011;55583;53.012;6.556;2023-04-19T06:25:31;5.72;;;4.53;;
52742;SDS011;55583;53.012;6.556;2023-04-19T06:27:57;9.45;;;4.32;;
52742;SDS011;55583;53.012;6.556;2023-04-19T06:30:22;10.82;;;4.10;;
52742;SDS011;55583;53.012;6.556;2023-04-19T06:32:48;7.15;;;4.57;;
52742;SDS011;55583;53.012;6.556;2023-04-19T06:35:14;5.47;;;4.40;;
52742;SDS011;55583;53.012;6.556;2023-04-19T06:37:40;6.68;;;4.05;;
52742;SDS011;55583;53.012;6.556;2023-04-19T06:40:06;7.88;;;4.22;;
52742;SDS011;55583;53.012;6.556;2023-04-19T06:42:32;8.48;;;4.18;;
52742;SDS011;55583;53.012;6.556;2023-04-19T06:44:58;7.80;;;4.32;;
52742;SDS011;55583;53.012;6.556;2023-04-19T06:47:24;11.10;;;3.75;;
52742;SDS011;55583;53.012;6.556;2023-04-19T06:49:50;8.98;;;3.60;;
52742;SDS011;55583;53.012;6.556;2023-04-19T06:52:16;5.25;;;2.90;;
52742;SDS011;55583;53.012;6.556;2023-04-19T06:54:41;5.85;;;3.53;;
52742;SDS011;55583;53.012;6.556;2023-04-19T06:57:12;7.82;;;3.90;;
52742;SDS011;55583;53.012;6.556;2023-04-19T06:59:37;7.78;;;3.95;;
52742;SDS011;55583;53.012;6.556;2023-04-19T07:02:03;6.47;;;3.28;;
52742;SDS011;55583;53.012;6.556;2023-04-19T07:04:29;4.97;;;3.22;;
52742;SDS011;55583;53.012;6.556;2023-04-19T07:06:55;4.97;;;3.20;;
52742;SDS011;55583;53.012;6.556;2023-04-19T07:09:20;8.98;;;3.88;;
52742;SDS011;55583;53.012;6.556;2023-04-19T07:11:46;6.07;;;3.70;;
52742;SDS011;55583;53.012;6.556;2023-04-19T07:14:12;4.30;;;3.42;;
52742;SDS011;55583;53.012;6.556;2023-04-19T07:16:38;7.40;;;3.78;;
52742;SDS011;55583;53.012;6.556;2023-04-19T07:19:03;5.15;;;3.63;;
52742;SDS011;55583;53.012;6.556;2023-04-19T07:21:29;4.15;;;3.42;;
52742;SDS011;55583;53.012;6.556;2023-04-19T07:23:57;4.72;;;3.63;;
52742;SDS011;55583;53.012;6.556;2023-04-19T07:26:23;5.25;;;3.15;;
52742;SDS011;55583;53.012;6.556;2023-04-19T07:28:49;4.57;;;2.88;;
52742;SDS011;55583;53.012;6.556;2023-04-19T07:31:15;4.43;;;3.30;;
52742;SDS011;55583;53.012;6.556;2023-04-19T07:33:41;6.38;;;3.42;;
52742;SDS011;55583;53.012;6.556;2023-04-19T07:36:07;7.45;;;3.05;;
52742;SDS011;55583;53.012;6.556;2023-04-19T07:38:33;4.50;;;3.28;;
52742;SDS011;55583;53.012;6.556;2023-04-19T07:40:59;5.28;;;3.15;;
52742;SDS011;55583;53.012;6.556;2023-04-19T07:43:24;4.30;;;3.30;;
52742;SDS011;55583;53.012;6.556;2023-04-19T07:45:51;6.25;;;3.10;;
52742;SDS011;55583;53.012;6.556;2023-04-19T07:48:17;5.05;;;3.28;;
52742;SDS011;55583;53.012;6.556;2023-04-19T07:50:42;10.50;;;3.45;;
52742;SDS011;55583;53.012;6.556;2023-04-19T07:53:08;5.00;;;3.08;;
52742;SDS011;55583;53.012;6.556;2023-04-19T07:55:34;9.48;;;3.90;;
52742;SDS011;55583;53.012;6.556;2023-04-19T07:58:00;4.00;;;2.75;;
52742;SDS011;55583;53.012;6.556;2023-04-19T08:00:26;3.90;;;3.05;;
52742;SDS011;55583;53.012;6.556;2023-04-19T08:02:53;4.05;;;2.97;;
52742;SDS011;55583;53.012;6.556;2023-04-19T08:05:21;4.43;;;2.97;;
52742;SDS011;55583;53.012;6.556;2023-04-19T08:07:47;5.53;;;3.42;;
52742;SDS011;55583;53.012;6.556;2023-04-19T08:10:13;7.00;;;2.78;;
52742;SDS011;55583;53.012;6.556;2023-04-19T08:12:39;3.92;;;2.92;;
52742;SDS011;55583;53.012;6.556;2023-04-19T08:15:06;7.18;;;3.10;;
52742;SDS011;55583;53.012;6.556;2023-04-19T08:17:32;8.30;;;3.40;;
52742;SDS011;55583;53.012;6.556;2023-04-19T08:19:58;4.90;;;3.03;;
52742;SDS011;55583;53.012;6.556;2023-04-19T08:22:24;5.88;;;2.80;;
52742;SDS011;55583;53.012;6.556;2023-04-19T08:24:50;5.63;;;3.03;;
52742;SDS011;55583;53.012;6.556;2023-04-19T08:27:16;4.68;;;2.97;;
52742;SDS011;55583;53.012;6.556;2023-04-19T08:29:43;4.72;;;2.72;;
52742;SDS011;55583;53.012;6.556;2023-04-19T08:32:10;9.70;;;3.30;;
52742;SDS011;55583;53.012;6.556;2023-04-19T08:34:36;6.70;;;2.67;;
52742;SDS011;55583;53.012;6.556;2023-04-19T08:37:03;3.38;;;2.67;;
52742;SDS011;55583;53.012;6.556;2023-04-19T08:39:33;7.93;;;2.50;;
52742;SDS011;55583;53.012;6.556;2023-04-19T08:42:08;3.47;;;2.45;;
52742;SDS011;55583;53.012;6.556;2023-04-19T08:44:34;2.97;;;2.15;;
52742;SDS011;55583;53.012;6.556;2023-04-19T08:47:04;3.15;;;2.17;;
52742;SDS011;55583;53.012;6.556;2023-04-19T08:49:30;8.20;;;2.92;;
52742;SDS011;55583;53.012;6.556;2023-04-19T08:52:00;3.58;;;2.90;;
52742;SDS011;55583;53.012;6.556;2023-04-19T08:54:27;3.83;;;2.50;;
52742;SDS011;55583;53.012;6.556;2023-04-19T08:56:53;4.05;;;2.60;;
52742;SDS011;55583;53.012;6.556;2023-04-19T08:59:20;3.67;;;2.30;;
52742;SDS011;55583;53.012;6.556;2023-04-19T09:01:46;3.95;;;1.98;;
52742;SDS011;55583;53.012;6.556;2023-04-19T09:04:12;2.40;;;2.13;;
52742;SDS011;55583;53.012;6.556;2023-04-19T09:06:38;4.30;;;2.20;;
52742;SDS011;55583;53.012;6.556;2023-04-19T09:09:14;3.97;;;2.15;;
52742;SDS011;55583;53.012;6.556;2023-04-19T09:11:47;2.83;;;2.35;;
52742;SDS011;55583;53.012;6.556;2023-04-19T09:14:14;2.50;;;2.00;;
52742;SDS011;55583;53.012;6.556;2023-04-19T09:16:41;3.78;;;2.10;;
52742;SDS011;55583;53.012;6.556;2023-04-19T09:19:07;4.40;;;2.20;;
52742;SDS011;55583;53.012;6.556;2023-04-19T09:21:33;2.58;;;1.77;;
52742;SDS011;55583;53.012;6.556;2023-04-19T09:24:00;5.53;;;2.17;;
52742;SDS011;55583;53.012;6.556;2023-04-19T09:26:27;8.15;;;2.38;;
52742;SDS011;55583;53.012;6.556;2023-04-19T09:31:32;3.67;;;2.05;;
52742;SDS011;55583;53.012;6.556;2023-04-19T09:34:13;3.83;;;1.88;;
52742;SDS011;55583;53.012;6.556;2023-04-19T09:36:40;3.00;;;2.00;;
52742;SDS011;55583;53.012;6.556;2023-04-19T09:39:06;5.63;;;1.80;;
52742;SDS011;55583;53.012;6.556;2023-04-19T09:41:32;5.75;;;2.03;;
52742;SDS011;55583;53.012;6.556;2023-04-19T09:44:10;2.20;;;1.48;;
52742;SDS011;55583;53.012;6.556;2023-04-19T09:46:39;3.83;;;1.65;;
52742;SDS011;55583;53.012;6.556;2023-04-19T09:51:41;8.52;;;1.95;;
52742;SDS011;55583;53.012;6.556;2023-04-19T09:54:08;3.03;;;1.88;;
52742;SDS011;55583;53.012;6.556;2023-04-19T09:56:35;2.63;;;1.55;;
52742;SDS011;55583;53.012;6.556;2023-04-19T09:59:02;5.03;;;1.63;;
52742;SDS011;55583;53.012;6.556;2023-04-19T10:01:28;3.75;;;1.80;;
52742;SDS011;55583;53.012;6.556;2023-04-19T10:03:58;5.45;;;1.63;;
52742;SDS011;55583;53.012;6.556;2023-04-19T10:06:24;1.40;;;1.30;;
52742;SDS011;55583;53.012;6.556;2023-04-19T10:08:52;7.57;;;1.95;;
52742;SDS011;55583;53.012;6.556;2023-04-19T10:11:21;7.47;;;2.00;;
52742;SDS011;55583;53.012;6.556;2023-04-19T10:13:47;2.63;;;1.60;;
52742;SDS011;55583;53.012;6.556;2023-04-19T10:16:18;5.15;;;1.88;;
52742;SDS011;55583;53.012;6.556;2023-04-19T10:18:44;3.80;;;1.40;;
52742;SDS011;55583;53.012;6.556;2023-04-19T10:21:10;2.65;;;1.50;;
52742;SDS011;55583;53.012;6.556;2023-04-19T10:23:36;3.95;;;1.55;;
52742;SDS011;55583;53.012;6.556;2023-04-19T10:26:02;3.05;;;1.90;;
52742;SDS011;55583;53.012;6.556;2023-04-19T10:28:28;3.22;;;1.30;;
52742;SDS011;55583;53.012;6.556;2023-04-19T10:30:58;3.28;;;1.40;;
52742;SDS011;55583;53.012;6.556;2023-04-19T10:33:34;2.13;;;1.20;;
52742;SDS011;55583;53.012;6.556;2023-04-19T10:36:01;5.65;;;1.42;;
52742;SDS011;55583;53.012;6.556;2023-04-19T10:38:40;5.07;;;1.40;;
52742;SDS011;55583;53.012;6.556;2023-04-19T10:41:16;3.17;;;1.17;;
52742;SDS011;55583;53.012;6.556;2023-04-19T10:43:47;1.58;;;1.13;;
52742;SDS011;55583;53.012;6.556;2023-04-19T10:46:34;3.90;;;1.20;;
52742;SDS011;55583;53.012;6.556;2023-04-19T10:49:02;7.40;;;1.42;;
52742;SDS011;55583;53.012;6.556;2023-04-19T10:51:35;3.45;;;2.10;;
52742;SDS011;55583;53.012;6.556;2023-04-19T10:54:06;1.48;;;1.30;;
52742;SDS011;55583;53.012;6.556;2023-04-19T10:59:24;6.18;;;1.10;;
52742;SDS011;55583;53.012;6.556;2023-04-19T11:01:57;2.25;;;1.40;;
52742;SDS011;55583;53.012;6.556;2023-04-19T11:07:00;2.33;;;1.17;;
52742;SDS011;55583;53.012;6.556;2023-04-19T11:09:28;1.85;;;1.02;;
52742;SDS011;55583;53.012;6.556;2023-04-19T11:12:01;1.20;;;1.10;;
52742;SDS011;55583;53.012;6.556;2023-04-19T11:14:29;2.85;;;1.00;;
52742;SDS011;55583;53.012;6.556;2023-04-19T11:16:56;3.35;;;1.75;;
52742;SDS011;55583;53.012;6.556;2023-04-19T11:19:22;1.65;;;1.02;;
52742;SDS011;55583;53.012;6.556;2023-04-19T11:21:48;2.35;;;1.50;;
52742;SDS011;55583;53.012;6.556;2023-04-19T11:24:14;2.75;;;1.50;;
52742;SDS011;55583;53.012;6.556;2023-04-19T11:26:42;2.95;;;1.77;;
52742;SDS011;55583;53.012;6.556;2023-04-19T11:29:09;2.45;;;1.30;;
52742;SDS011;55583;53.012;6.556;2023-04-19T11:31:36;2.97;;;1.38;;
52742;SDS011;55583;53.012;6.556;2023-04-19T11:34:02;1.65;;;1.30;;
52742;SDS011;55583;53.012;6.556;2023-04-19T11:36:28;2.85;;;1.10;;
52742;SDS011;55583;53.012;6.556;2023-04-19T11:38:56;2.17;;;1.30;;
52742;SDS011;55583;53.012;6.556;2023-04-19T11:41:22;2.03;;;1.52;;
52742;SDS011;55583;53.012;6.556;2023-04-19T11:43:47;1.98;;;1.38;;
52742;SDS011;55583;53.012;6.556;2023-04-19T11:46:13;2.88;;;1.70;;
52742;SDS011;55583;53.012;6.556;2023-04-19T11:48:48;3.45;;;1.50;;
52742;SDS011;55583;53.012;6.556;2023-04-19T11:51:16;3.25;;;1.33;;
52742;SDS011;55583;53.012;6.556;2023-04-19T11:53:42;2.38;;;1.80;;
52742;SDS011;55583;53.012;6.556;2023-04-19T11:56:08;3.35;;;2.20;;
52742;SDS011;55583;53.012;6.556;2023-04-19T11:58:41;2.28;;;1.95;;
52742;SDS011;55583;53.012;6.556;2023-04-19T12:01:18;2.78;;;1.90;;
52742;SDS011;55583;53.012;6.556;2023-04-19T12:06:12;4.03;;;1.83;;
52742;SDS011;55583;53.012;6.556;2023-04-19T12:08:47;4.68;;;2.10;;
52742;SDS011;55583;53.012;6.556;2023-04-19T12:11:16;3.70;;;2.08;;
52742;SDS011;55583;53.012;6.556;2023-04-19T12:19:48;3.97;;;2.42;;
52742;SDS011;55583;53.012;6.556;2023-04-19T12:22:14;3.42;;;1.80;;
52742;SDS011;55583;53.012;6.556;2023-04-19T12:24:41;2.75;;;1.95;;
52742;SDS011;55583;53.012;6.556;2023-04-19T12:27:08;8.32;;;2.17;;
52742;SDS011;55583;53.012;6.556;2023-04-19T12:29:34;2.83;;;2.40;;
52742;SDS011;55583;53.012;6.556;2023-04-19T12:32:00;3.55;;;2.33;;
52742;SDS011;55583;53.012;6.556;2023-04-19T12:34:26;3.85;;;2.40;;
52742;SDS011;55583;53.012;6.556;2023-04-19T12:36:52;4.45;;;2.70;;
52742;SDS011;55583;53.012;6.556;2023-04-19T12:39:18;2.63;;;2.42;;
52742;SDS011;55583;53.012;6.556;2023-04-19T12:41:44;3.15;;;2.58;;
52742;SDS011;55583;53.012;6.556;2023-04-19T12:44:12;3.60;;;2.38;;
52742;SDS011;55583;53.012;6.556;2023-04-19T12:46:37;3.20;;;2.30;;
52742;SDS011;55583;53.012;6.556;2023-04-19T12:49:03;5.88;;;2.20;;
52742;SDS011;55583;53.012;6.556;2023-04-19T12:51:29;3.38;;;2.22;;
52742;SDS011;55583;53.012;6.556;2023-04-19T12:53:55;3.05;;;2.33;;
52742;SDS011;55583;53.012;6.556;2023-04-19T12:56:21;3.28;;;2.20;;
52742;SDS011;55583;53.012;6.556;2023-04-19T12:58:47;6.00;;;2.22;;
52742;SDS011;55583;53.012;6.556;2023-04-19T13:01:12;3.03;;;2.35;;
52742;SDS011;55583;53.012;6.556;2023-04-19T13:03:38;13.88;;;3.08;;
52742;SDS011;55583;53.012;6.556;2023-04-19T13:06:04;3.90;;;2.00;;
52742;SDS011;55583;53.012;6.556;2023-04-19T13:08:30;7.13;;;2.05;;
52742;SDS011;55583;53.012;6.556;2023-04-19T13:10:56;3.65;;;2.42;;
52742;SDS011;55583;53.012;6.556;2023-04-19T13:13:23;3.17;;;2.00;;
52742;SDS011;55583;53.012;6.556;2023-04-19T13:15:50;4.32;;;2.50;;
52742;SDS011;55583;53.012;6.556;2023-04-19T13:18:16;5.43;;;2.30;;
52742;SDS011;55583;53.012;6.556;2023-04-19T13:20:42;4.53;;;2.15;;
52742;SDS011;55583;53.012;6.556;2023-04-19T13:23:08;5.57;;;2.05;;
52742;SDS011;55583;53.012;6.556;2023-04-19T13:25:35;4.95;;;2.45;;
52742;SDS011;55583;53.012;6.556;2023-04-19T13:28:00;5.57;;;2.13;;
52742;SDS011;55583;53.012;6.556;2023-04-19T13:30:26;7.32;;;2.60;;
52742;SDS011;55583;53.012;6.556;2023-04-19T13:32:52;2.75;;;2.20;;
52742;SDS011;55583;53.012;6.556;2023-04-19T13:35:18;4.82;;;2.15;;
52742;SDS011;55583;53.012;6.556;2023-04-19T13:37:43;2.47;;;2.15;;
52742;SDS011;55583;53.012;6.556;2023-04-19T13:40:11;4.70;;;2.28;;
52742;SDS011;55583;53.012;6.556;2023-04-19T13:42:36;3.25;;;2.47;;
52742;SDS011;55583;53.012;6.556;2023-04-19T13:45:02;1.83;;;1.65;;
52742;SDS011;55583;53.012;6.556;2023-04-19T13:47:28;4.65;;;2.25;;
52742;SDS011;55583;53.012;6.556;2023-04-19T13:49:54;2.28;;;2.08;;
52742;SDS011;55583;53.012;6.556;2023-04-19T13:52:20;3.08;;;2.20;;
52742;SDS011;55583;53.012;6.556;2023-04-19T13:54:47;4.88;;;2.45;;
52742;SDS011;55583;53.012;6.556;2023-04-19T13:57:13;3.63;;;2.00;;
52742;SDS011;55583;53.012;6.556;2023-04-19T13:59:39;2.38;;;1.73;;
52742;SDS011;55583;53.012;6.556;2023-04-19T14:02:04;6.03;;;2.25;;
52742;SDS011;55583;53.012;6.556;2023-04-19T14:04:31;4.47;;;2.47;;
52742;SDS011;55583;53.012;6.556;2023-04-19T14:06:56;5.65;;;2.25;;
52742;SDS011;55583;53.012;6.556;2023-04-19T14:09:22;5.53;;;2.00;;
52742;SDS011;55583;53.012;6.556;2023-04-19T14:11:48;8.90;;;3.42;;
52742;SDS011;55583;53.012;6.556;2023-04-19T14:14:13;5.15;;;2.05;;
52742;SDS011;55583;53.012;6.556;2023-04-19T14:16:39;4.88;;;2.20;;
52742;SDS011;55583;53.012;6.556;2023-04-19T14:19:05;4.22;;;2.50;;
52742;SDS011;55583;53.012;6.556;2023-04-19T14:21:31;7.45;;;2.38;;
52742;SDS011;55583;53.012;6.556;2023-04-19T14:23:57;3.65;;;2.40;;
52742;SDS011;55583;53.012;6.556;2023-04-19T14:26:23;2.67;;;2.30;;
52742;SDS011;55583;53.012;6.556;2023-04-19T14:28:48;3.00;;;2.45;;
52742;SDS011;55583;53.012;6.556;2023-04-19T14:31:14;6.32;;;2.17;;
52742;SDS011;55583;53.012;6.556;2023-04-19T14:33:40;5.38;;;2.60;;
52742;SDS011;55583;53.012;6.556;2023-04-19T14:36:05;6.03;;;2.20;;
52742;SDS011;55583;53.012;6.556;2023-04-19T14:38:31;2.92;;;2.22;;
52742;SDS011;55583;53.012;6.556;2023-04-19T14:40:57;4.20;;;2.50;;
52742;SDS011;55583;53.012;6.556;2023-04-19T14:43:23;3.97;;;2.50;;
52742;SDS011;55583;53.012;6.556;2023-04-19T14:45:49;5.32;;;2.70;;
52742;SDS011;55583;53.012;6.556;2023-04-19T14:48:15;3.83;;;2.72;;
52742;SDS011;55583;53.012;6.556;2023-04-19T14:50:41;3.58;;;2.90;;
52742;SDS011;55583;53.012;6.556;2023-04-19T14:53:07;8.45;;;3.25;;
52742;SDS011;55583;53.012;6.556;2023-04-19T14:55:33;4.70;;;3.25;;
52742;SDS011;55583;53.012;6.556;2023-04-19T14:58:00;6.57;;;2.58;;